Time,TemperatureF,DewpointF,PressureIn,WindDirection,WindDirectionDegrees,WindSpeedMPH,WindSpeedGustMPH,Humidity,HourlyPrecipIn,Conditions,Clouds,dailyrainin,SoftwareType,DateUTC
2013-05-16 00:09:00,64.4,4.4,29.58,WNW,292,0.0,-999.0,9,-99.99,,,0.00,Acu-Link.com,2013-05-16 05:09:00,
2013-05-16 00:24:00,64.6,6.8,29.58,SSW,202,0.0,-999.0,10,-99.99,,,0.00,Acu-Link.com,2013-05-16 05:24:00,
2013-05-16 00:40:00,64.2,6.5,29.58,NW,315,0.0,-999.0,10,-99.99,,,0.00,Acu-Link.com,2013-05-16 05:40:00,
2013-05-16 00:55:00,63.1,0.9,29.58,West,270,0.0,-999.0,8,-99.99,,,0.00,Acu-Link.com,2013-05-16 05:55:00,
2013-05-16 01:10:00,62.2,-9.5,29.58,SSE,157,0.0,-999.0,5,-99.99,,,0.00,Acu-Link.com,2013-05-16 06:10:00,
2013-05-16 01:25:00,60.8,-40.4,29.59,NNW,337,0.0,-999.0,1,-99.99,,,0.00,Acu-Link.com,2013-05-16 06:25:00,
2013-05-16 01:40:00,59.9,-40.9,29.60,South,180,0.0,-999.0,1,-99.99,,,0.00,Acu-Link.com,2013-05-16 06:40:00,
2013-05-16 01:55:00,58.8,-41.6,29.60,NNW,337,0.0,-999.0,1,-99.99,,,0.00,Acu-Link.com,2013-05-16 06:55:00,
2013-05-16 02:10:00,58.3,-41.9,29.60,NW,315,0.0,-999.0,1,-99.99,,,0.00,Acu-Link.com,2013-05-16 07:10:00,
2013-05-16 02:26:00,57.6,-42.3,29.60,NNW,337,1.7,-999.0,1,-99.99,,,0.00,Acu-Link.com,2013-05-16 07:26:00,
2013-05-16 02:41:00,57.0,-42.7,29.59,NNW,337,0.0,-999.0,1,-99.99,,,0.00,Acu-Link.com,2013-05-16 07:41:00,
2013-05-16 02:56:00,56.3,-43.1,29.59,SSW,202,0.0,-999.0,1,-99.99,,,0.00,Acu-Link.com,2013-05-16 07:56:00,
2013-05-16 03:11:00,55.9,-43.3,29.59,NW,315,0.0,-999.0,1,-99.99,,,0.00,Acu-Link.com,2013-05-16 08:11:00,
2013-05-16 03:26:00,55.4,-43.7,29.60,East,90,0.0,-999.0,1,-99.99,,,0.00,Acu-Link.com,2013-05-16 08:26:00,
2013-05-16 03:41:00,54.7,-44.1,29.60,North,0,0.0,-999.0,1,-99.99,,,0.00,Acu-Link.com,2013-05-16 08:41:00,
2013-05-16 03:56:00,54.0,-44.5,29.60,NNW,337,0.0,-999.0,1,-99.99,,,0.00,Acu-Link.com,2013-05-16 08:56:00,
2013-05-16 04:11:00,53.6,-44.7,29.60,North,0,0.0,-999.0,1,-99.99,,,0.00,Acu-Link.com,2013-05-16 09:11:00,
2013-05-16 04:26:00,53.1,-45.1,29.60,NW,315,0.0,-999.0,1,-99.99,,,0.00,Acu-Link.com,2013-05-16 09:26:00,
2013-05-16 04:42:00,53.1,-45.1,29.60,North,0,0.0,-999.0,1,-99.99,,,0.00,Acu-Link.com,2013-05-16 09:42:00,
2013-05-16 04:57:00,52.7,-45.3,29.60,NNW,337,0.0,-999.0,1,-99.99,,,0.00,Acu-Link.com,2013-05-16 09:57:00,
2013-05-16 05:12:00,52.5,-45.4,29.60,South,180,0.0,-999.0,1,-99.99,,,0.00,Acu-Link.com,2013-05-16 10:12:00,
2013-05-16 05:27:00,52.2,-45.6,29.61,South,180,0.0,-999.0,1,-99.99,,,0.00,Acu-Link.com,2013-05-16 10:27:00,
2013-05-16 05:42:00,51.8,-45.8,29.61,NNW,337,0.0,-999.0,1,-99.99,,,0.00,Acu-Link.com,2013-05-16 10:42:00,
2013-05-16 05:57:00,51.6,-46.0,29.62,NNW,337,0.0,-999.0,1,-99.99,,,0.00,Acu-Link.com,2013-05-16 10:57:00,
2013-05-16 06:12:00,51.8,-45.8,29.62,NNW,337,0.0,-999.0,1,-99.99,,,0.00,Acu-Link.com,2013-05-16 11:12:00,
2013-05-16 06:27:00,52.5,-45.4,29.62,West,270,0.0,-999.0,1,-99.99,,,0.00,Acu-Link.com,2013-05-16 11:27:00,
2013-05-16 06:42:00,54.1,-44.4,29.62,West,270,0.0,-999.0,1,-99.99,,,0.00,Acu-Link.com,2013-05-16 11:42:00,
2013-05-16 06:58:00,55.2,-43.8,29.63,North,0,0.0,-999.0,1,-99.99,,,0.00,Acu-Link.com,2013-05-16 11:58:00,
2013-05-16 07:13:00,56.7,-42.9,29.63,NNW,337,0.0,-999.0,1,-99.99,,,0.00,Acu-Link.com,2013-05-16 12:13:00,
2013-05-16 07:28:00,58.1,-42.0,29.63,NNW,337,0.0,-999.0,1,-99.99,,,0.00,Acu-Link.com,2013-05-16 12:28:00,
2013-05-16 07:43:00,62.2,-39.5,29.63,North,0,0.0,-999.0,1,-99.99,,,0.00,Acu-Link.com,2013-05-16 12:43:00,
2013-05-16 07:58:00,64.8,-37.9,29.63,North,0,0.0,-999.0,1,-99.99,,,0.00,Acu-Link.com,2013-05-16 12:58:00,
2013-05-16 08:13:00,68.0,-36.0,29.63,South,180,0.0,-999.0,1,-99.99,,,0.00,Acu-Link.com,2013-05-16 13:13:00,
2013-05-16 08:29:00,71.2,-34.1,29.63,South,180,0.0,-999.0,1,-99.99,,,0.00,Acu-Link.com,2013-05-16 13:29:00,
2013-05-16 08:44:00,72.7,-33.2,29.63,South,180,3.7,-999.0,0,-99.99,,,0.00,Acu-Link.com,2013-05-16 13:44:00,
2013-05-16 08:59:00,69.4,-35.2,29.63,South,180,4.7,-999.0,0,-99.99,,,0.00,Acu-Link.com,2013-05-16 13:59:00,
2013-05-16 09:14:00,71.4,-34.0,29.64,SSE,157,2.7,-999.0,0,-99.99,,,0.00,Acu-Link.com,2013-05-16 14:14:00,
2013-05-16 09:29:00,70.7,-34.4,29.64,South,180,4.2,-999.0,0,-99.99,,,0.00,Acu-Link.com,2013-05-16 14:29:00,
2013-05-16 09:44:00,69.6,-35.1,29.64,South,180,3.2,-999.0,0,-99.99,,,0.00,Acu-Link.com,2013-05-16 14:44:00,
2013-05-16 09:59:00,70.7,-34.4,29.63,South,180,3.7,-999.0,0,-99.99,,,0.00,Acu-Link.com,2013-05-16 14:59:00,
2013-05-16 10:14:00,73.4,-32.8,29.63,East,90,6.3,-999.0,0,-99.99,,,0.00,Acu-Link.com,2013-05-16 15:14:00,
2013-05-16 10:29:00,73.2,-32.9,29.63,SSE,157,2.7,-999.0,0,-99.99,,,0.00,Acu-Link.com,2013-05-16 15:29:00,
2013-05-16 10:45:00,74.3,-32.2,29.63,South,180,3.7,-999.0,0,-99.99,,,0.00,Acu-Link.com,2013-05-16 15:45:00,
2013-05-16 11:00:00,75.0,-31.8,29.62,WSW,247,1.1,-999.0,0,-99.99,,,0.00,Acu-Link.com,2013-05-16 16:00:00,
2013-05-16 11:15:00,77.5,-30.3,29.62,South,180,3.7,-999.0,0,-99.99,,,0.00,Acu-Link.com,2013-05-16 16:15:00,
2013-05-16 11:30:00,77.0,-30.6,29.62,South,180,7.8,-999.0,0,-99.99,,,0.00,Acu-Link.com,2013-05-16 16:30:00,
2013-05-16 11:45:00,76.1,-31.2,29.61,ESE,112,4.2,-999.0,0,-99.99,,,0.00,Acu-Link.com,2013-05-16 16:45:00,
2013-05-16 12:00:00,79.7,-29.0,29.60,SSE,157,5.3,-999.0,0,-99.99,,,0.00,Acu-Link.com,2013-05-16 17:00:00,
2013-05-16 12:16:00,80.4,10.7,29.60,South,180,4.2,-999.0,7,-99.99,,,0.00,Acu-Link.com,2013-05-16 17:16:00,
2013-05-16 12:31:00,80.6,19.0,29.59,South,180,6.3,-999.0,10,-99.99,,,0.00,Acu-Link.com,2013-05-16 17:31:00,
2013-05-16 12:46:00,80.8,28.8,29.59,SSW,202,3.2,-999.0,15,-99.99,,,0.00,Acu-Link.com,2013-05-16 17:46:00,
2013-05-16 13:01:00,80.6,30.3,29.58,NNE,22,4.7,-999.0,16,-99.99,,,0.00,Acu-Link.com,2013-05-16 18:01:00,
2013-05-16 13:16:00,81.0,30.6,29.58,ESE,112,4.7,-999.0,16,-99.99,,,0.00,Acu-Link.com,2013-05-16 18:16:00,
2013-05-16 13:31:00,82.0,31.4,29.57,WNW,292,5.8,-999.0,16,-99.99,,,0.00,Acu-Link.com,2013-05-16 18:31:00,
2013-05-16 13:46:00,82.9,32.1,29.56,South,180,4.7,-999.0,16,-99.99,,,0.00,Acu-Link.com,2013-05-16 18:46:00,
2013-05-16 14:01:00,83.5,32.6,29.56,ESE,112,5.8,-999.0,16,-99.99,,,0.00,Acu-Link.com,2013-05-16 19:01:00,
2013-05-16 14:16:00,82.8,32.0,29.57,East,90,5.8,-999.0,16,-99.99,,,0.00,Acu-Link.com,2013-05-16 19:16:00,
2013-05-16 14:32:00,83.7,34.2,29.56,SE,135,7.8,-999.0,17,-99.99,,,0.00,Acu-Link.com,2013-05-16 19:32:00,
2013-05-16 14:47:00,84.0,34.5,29.56,South,180,8.9,-999.0,17,-99.99,,,0.00,Acu-Link.com,2013-05-16 19:47:00,
2013-05-16 15:02:00,82.6,31.8,29.55,SSW,202,4.7,-999.0,16,-99.99,,,0.00,Acu-Link.com,2013-05-16 20:02:00,
2013-05-16 15:17:00,80.8,23.5,29.55,SSE,157,8.3,-999.0,12,-99.99,,,0.00,Acu-Link.com,2013-05-16 20:17:00,
2013-05-16 15:32:00,80.1,16.2,29.55,South,180,3.2,-999.0,9,-99.99,,,0.00,Acu-Link.com,2013-05-16 20:32:00,
2013-05-16 15:47:00,81.9,24.3,29.55,South,180,10.9,-999.0,12,-99.99,,,0.00,Acu-Link.com,2013-05-16 20:47:00,
2013-05-16 16:02:00,80.8,19.2,29.56,South,180,5.3,-999.0,10,-99.99,,,0.00,Acu-Link.com,2013-05-16 21:02:00,
2013-05-16 16:17:00,81.1,11.2,29.55,SSE,157,4.7,-999.0,7,-99.99,,,0.00,Acu-Link.com,2013-05-16 21:17:00,
2013-05-16 16:32:00,80.4,10.7,29.55,SSE,157,6.3,-999.0,7,-99.99,,,0.00,Acu-Link.com,2013-05-16 21:32:00,
2013-05-16 16:48:00,80.6,13.9,29.55,South,180,5.3,-999.0,8,-99.99,,,0.00,Acu-Link.com,2013-05-16 21:48:00,
2013-05-16 17:03:00,82.2,28.3,29.54,SSE,157,7.3,-999.0,14,-99.99,,,0.00,Acu-Link.com,2013-05-16 22:03:00,
2013-05-16 17:18:00,81.0,25.5,29.53,SSE,157,6.8,-999.0,13,-99.99,,,0.00,Acu-Link.com,2013-05-16 22:18:00,
2013-05-16 17:33:00,81.5,24.0,29.53,SSW,202,6.3,-999.0,12,-99.99,,,0.00,Acu-Link.com,2013-05-16 22:33:00,
2013-05-16 17:48:00,80.6,19.0,29.53,South,180,10.9,-999.0,10,-99.99,,,0.00,Acu-Link.com,2013-05-16 22:48:00,
2013-05-16 18:03:00,79.2,-29.3,29.52,SSE,157,4.7,-999.0,0,-99.99,,,0.00,Acu-Link.com,2013-05-16 23:03:00,
2013-05-16 18:19:00,78.1,-30.0,29.53,South,180,7.3,-999.0,0,-99.99,,,0.00,Acu-Link.com,2013-05-16 23:19:00,
2013-05-16 18:34:00,77.4,-30.4,29.53,SSE,157,4.7,-999.0,0,-99.99,,,0.00,Acu-Link.com,2013-05-16 23:34:00,
2013-05-16 18:49:00,77.0,-30.6,29.53,South,180,6.8,-999.0,0,-99.99,,,0.00,Acu-Link.com,2013-05-16 23:49:00,
2013-05-16 19:04:00,76.6,-30.9,29.53,SSE,157,2.2,-999.0,0,-99.99,,,0.00,Acu-Link.com,2013-05-17 00:04:00,
2013-05-16 19:19:00,76.5,-30.9,29.54,WSW,247,2.2,-999.0,0,-99.99,,,0.00,Acu-Link.com,2013-05-17 00:19:00,
2013-05-16 19:34:00,76.1,-31.2,29.54,SSW,202,0.0,-999.0,0,-99.99,,,0.00,Acu-Link.com,2013-05-17 00:34:00,
2013-05-16 19:49:00,75.6,-31.5,29.54,SSE,157,1.7,-999.0,0,-99.99,,,0.00,Acu-Link.com,2013-05-17 00:49:00,
2013-05-16 20:04:00,74.8,-31.9,29.54,South,180,0.0,-999.0,0,-99.99,,,0.00,Acu-Link.com,2013-05-17 01:04:00,
2013-05-16 20:19:00,74.1,-32.4,29.55,SSE,157,0.0,-999.0,0,-99.99,,,0.00,Acu-Link.com,2013-05-17 01:19:00,
2013-05-16 20:34:00,73.8,-32.5,29.55,SSE,157,0.0,-999.0,0,-99.99,,,0.00,Acu-Link.com,2013-05-17 01:34:00,
2013-05-16 20:50:00,73.2,-32.9,29.56,SSE,157,0.0,-999.0,0,-99.99,,,0.00,Acu-Link.com,2013-05-17 01:50:00,
2013-05-16 21:05:00,72.7,-33.2,29.56,SSE,157,0.0,-999.0,0,-99.99,,,0.00,Acu-Link.com,2013-05-17 02:05:00,
2013-05-16 21:20:00,71.8,-33.7,29.57,NW,315,0.0,-999.0,0,-99.99,,,0.00,Acu-Link.com,2013-05-17 02:20:00,
2013-05-16 21:35:00,71.1,-34.2,29.58,SSE,157,0.0,-999.0,0,-99.99,,,0.00,Acu-Link.com,2013-05-17 02:35:00,
2013-05-16 21:50:00,70.9,-34.3,29.58,SSE,157,0.0,-999.0,0,-99.99,,,0.00,Acu-Link.com,2013-05-17 02:50:00,
2013-05-16 22:05:00,71.1,-34.2,29.58,ESE,112,0.0,-999.0,0,-99.99,,,0.00,Acu-Link.com,2013-05-17 03:05:00,
2013-05-16 22:21:00,70.9,-34.3,29.57,NNW,337,0.0,-999.0,0,-99.99,,,0.00,Acu-Link.com,2013-05-17 03:21:00,
2013-05-16 22:36:00,70.5,-34.5,29.57,SSE,157,0.0,-999.0,0,-99.99,,,0.00,Acu-Link.com,2013-05-17 03:36:00,
2013-05-16 22:51:00,69.6,-35.1,29.57,ESE,112,0.0,-999.0,0,-99.99,,,0.00,Acu-Link.com,2013-05-17 03:51:00,
2013-05-16 23:06:00,68.7,-35.6,29.56,NNE,22,0.0,-999.0,0,-99.99,,,0.00,Acu-Link.com,2013-05-17 04:06:00,
2013-05-16 23:21:00,68.0,-36.0,29.56,South,180,0.0,-999.0,0,-99.99,,,0.00,Acu-Link.com,2013-05-17 04:21:00,
2013-05-16 23:36:00,68.5,-35.7,29.56,SSE,157,1.7,-999.0,0,-99.99,,,0.00,Acu-Link.com,2013-05-17 04:36:00,
2013-05-16 23:51:00,68.2,-35.9,29.56,SSE,157,0.0,-999.0,0,-99.99,,,0.00,Acu-Link.com,2013-05-17 04:51:00,